Greenview, CA (96037)

3:00 AM PDT on July 06, 2015 (GMT -0700)
KCAETNA3 | | Change Station
CLOSE
Current Station
Personal Weather Station
Location: Island Rd, Scott Valley, CA
Elevation: 2728 ft
Nearby Weather Stations
Active Advisory: Fire Weather Warning

Elev 2728 ft 41.55 °N, 122.85 °W | Updated 10 seconds ago

Partly Cloudy
Partly Cloudy
59.8 °F
Feels Like 59.8 °F
N
0.0
Wind Variable Wind from SE
Gusts 0.0 mph

Today
High -- | Low -- °F
--% Chance of Precip.
Yesterday
High -- | Low -- °F
Precip. -- in
5:44 AM 8:48 PM
Waning Gibbous, 77% visible
Pressure 30.02 in
Visibility 10.0 miles
Clouds Clear
Dew Point 59 °F
Humidity 97%
Rainfall 0.00 in
Snow Depth Not available.
UV 0 out of 12
Pollen 7.00 out of 12
Air Quality Not available.
Flu Activity Not available.
METAR KMHS 060856Z AUTO 00000KT 10SM CLR 17/10 A3008 RMK AO2 SLP166 T01670100 53005

More Conditions Fewer Conditions

Pressure 30.02 in
Visibility 10.0 miles
Clouds Clear
Dew Point 59 °F
Humidity 97%
Rainfall 0.00 in
Snow Depth Not available.
UV 0 out of 12
Pollen 7.00 out of 12
Air Quality Not available.
Flu Activity Not available.
METAR KMHS 060856Z AUTO 00000KT 10SM CLR 17/10 A3008 RMK AO2 SLP166 T01670100 53005

More Conditions Fewer Conditions

10-Day Weather Forecast

×

Almanac

Astronomy

Jul. 06, 2015 Rise Set
Actual Time
Civil Twilight
Nautical Twilight
Astronomical Twilight
Moon
Length of Visible Light
Length of Day
Tomorrow will be .
, % of the Moon is Illuminated

Today's Extremes

State Highs State Lows

Community

WunderPhotos

Upload Photos

1,835,525 photos uploaded!

WunderBlogs® & News

Nearby

Air Quality

  Air Quality AQ Index Pollutant
Not available.

Snow Depth

Station Depth Elevation

Earthquake Activity

City Distance Mag. Time & Date
Minimum magnitude displayed is 2.5.

Coastal Water Temperatures

Place Temperature

Stations

Nearby Weather Stations

Station Location Temp. Windchill Dew Point Humidity Wind Precip. Elev Updated Type
                   
Fire Weather Warning
Statement as of 2:20 AM PDT on July 06, 2015

... Red flag warning in effect from 1 PM this afternoon to 11 PM
PDT this evening...

The National Weather Service in Medford has issued a red flag
warning... which is in effect from 1 PM this afternoon to 11 PM PDT
this evening.

* Impacts: increasing thunderstorm activity will create erratic
fire behavior and new fire starts.

* Affected area:
in northern CA fire zones... 280... 281... 284.
In southwest or fire zones... 617... 621... 622.

* Counties affected: in northern california: Klamath County. In
southern oregon: far eastern Douglas and Jackson County.

Precautionary/preparedness actions...

Abundant lightning on existing very dry fuels could cause
numerous new fire ignitions. Gusty and erratic outflow winds could
also create explosive fire growth potential.



Visit US at www.Weather.Gov/Medford